Skip Navigation LinksHome page > Weather > Current weather Skip Navigation Links

Current Weather

Ronald Reagan Washington National, Washington

For information only: do not use for flight planning or navigation.
Latest weather
Observation time Thursday, January 27, 2022 11:52 PM EST
Local time Friday, January 28, 2022 12:58 AM EST
Flight conditions Visual Meteorological Conditions
Winds
Wind direction South (170°)
Wind speed 3 mph
Visibility 10 mi.
Sky condition
Ceiling 7,000 ft. overcast
Cloud layer overcast 7,000 ft.
Temperature 32°F
Dewpoint 18°F
Altimeter 30.22 in.Hg
Derived measurements
Relative humidity 56%
Wind chill 29°F
Density altitude -2106 ft.
Sea-level pressure 30.22 in.Hg
Climate data
Temperature minimum, last 24 hours 20°F
Temperature maximum, last 24 hours 36°F
Remarks
Automated weather observing station with precipitation discriminator.
METAR KDCA 280452Z 17003KT 10SM OVC070 00/M08 A3022 RMK AO2 SLP234 T00001078 400221067

Settings

Location code

InnerDrive.Weather 4.0.6770.0 Release CLR 4.0.30319.42000
Copyright ©2018 Inner Drive Technology. All rights reserved. Portions Copyright ©1986-2018 David Braverman.

Find weather

Site navigation


Skip Navigation Links

Place info

Page info

PayPal - The safer, easier way to pay online!

Return home.

Copyright ©2022 Inner Drive Technology. Purveyors of fine, hand-crafted computer software. Page printed 2022-01-28T05:58:20 UTC.